Time;durP1;ratioP1;P1;durP2;ratioP2;P2;SDS_P1;SDS_P2;PMS_P1;PMS_P2;Temp;Humidity;BMP_temperature;BMP_pressure;BME280_temperature;BME280_humidity;BME280_pressure;Samples;Min_cycle;Max_cycle;Signal;HPM_P1;HPM_P2
2022/07/23 00:00:34;;;;;;;4.15;0.93;;;;;;;19.93;73.17;100358.11;1658973;84;21012;-67
2022/07/23 00:03:00;;;;;;;1.05;1.00;;;;;;;19.90;73.59;100353.19;1673239;84;21021;-66
2022/07/23 00:05:26;;;;;;;2.15;0.80;;;;;;;19.85;73.62;100355.81;1702570;83;21093;-67
2022/07/23 00:07:54;;;;;;;4.03;0.90;;;;;;;19.83;74.07;100360.14;1704698;83;21124;-66
2022/07/23 00:10:21;;;;;;;1.02;0.93;;;;;;;19.81;74.42;100362.79;1698922;83;21025;-67
2022/07/23 00:12:48;;;;;;;1.42;0.90;;;;;;;19.78;74.65;100366.02;1693549;83;21565;-67
2022/07/23 00:15:14;;;;;;;0.72;0.72;;;;;;;19.77;74.54;100361.66;1693886;83;21056;-67
2022/07/23 00:17:40;;;;;;;0.88;0.65;;;;;;;19.79;74.92;100368.44;1691302;83;21034;-65
2022/07/23 00:20:07;;;;;;;;;;;;;;;19.77;75.02;100366.52;1700273;83;21009;-67
2022/07/23 00:22:33;;;;;;;;;;;;;;;19.76;75.46;100371.66;1682155;84;20146;-67
2022/07/23 00:25:00;;;;;;;2.83;2.30;;;;;;;19.71;75.58;100370.20;1647177;86;20252;-67
2022/07/23 00:27:26;;;;;;;;;;;;;;;19.64;75.75;100369.00;1621342;87;21070;-67
2022/07/23 00:29:52;;;;;;;1.32;1.05;;;;;;;19.64;75.53;100368.19;1627664;87;20267;-67
2022/07/23 00:32:19;;;;;;;4.40;1.95;;;;;;;19.58;76.05;100367.30;1628808;87;21078;-67
2022/07/23 00:34:45;;;;;;;1.60;1.50;;;;;;;19.60;76.03;100365.70;1622715;87;21118;-67
2022/07/23 00:37:11;;;;;;;1.00;0.78;;;;;;;19.60;75.98;100366.52;1625099;88;21022;-67
2022/07/23 00:39:37;;;;;;;;;;;;;;;19.60;76.04;100367.05;1628206;87;21140;-68
2022/07/23 00:42:06;;;;;;;1.07;0.98;;;;;;;19.59;76.32;100374.36;1625232;87;20180;-68
2022/07/23 00:44:33;;;;;;;0.88;0.88;;;;;;;19.51;76.59;100369.89;1630526;86;21097;-68
2022/07/23 00:46:59;;;;;;;2.60;0.95;;;;;;;19.49;77.20;100372.83;1647355;86;21526;-66
2022/07/23 00:49:29;;;;;;;0.85;0.85;;;;;;;19.48;76.80;100377.97;1656575;86;20996;-67
2022/07/23 00:51:57;;;;;;;3.02;0.88;;;;;;;19.49;76.60;100386.34;1650366;86;21086;-66
2022/07/23 00:54:26;;;;;;;3.25;1.25;;;;;;;19.49;76.45;100389.05;1671596;85;21081;-68
2022/07/23 00:56:55;;;;;;;1.02;1.02;;;;;;;19.50;76.58;100382.59;1640189;85;21071;-67
2022/07/23 00:59:21;;;;;;;3.42;1.02;;;;;;;19.49;76.51;100393.11;1612127;87;21070;-67
2022/07/23 01:01:50;;;;;;;1.20;0.80;;;;;;;19.46;76.95;100389.56;1648839;84;21013;-67
2022/07/23 01:04:19;;;;;;;1.25;1.12;;;;;;;19.39;77.25;100383.50;1660350;84;21126;-67
2022/07/23 01:06:46;;;;;;;2.17;0.98;;;;;;;19.34;77.67;100379.35;1683260;85;21078;-67
2022/07/23 01:09:17;;;;;;;1.07;1.00;;;;;;;19.30;77.99;100379.56;1657562;86;21688;-68
2022/07/23 01:11:43;;;;;;;1.52;1.42;;;;;;;19.26;78.13;100378.69;1660356;86;21053;-68
2022/07/23 01:14:15;;;;;;;0.82;0.60;;;;;;;19.23;78.54;100379.70;1644810;84;21522;-68
2022/07/23 01:16:43;;;;;;;0.82;0.82;;;;;;;19.20;78.64;100385.62;1639524;86;21134;-68
2022/07/23 01:19:11;;;;;;;1.22;1.12;;;;;;;19.17;80.32;100387.45;1669106;85;20996;-68
2022/07/23 01:21:49;;;;;;;2.98;1.20;;;;;;;19.22;80.76;100395.11;1670830;84;21056;-67
2022/07/23 01:24:19;;;;;;;1.10;1.10;;;;;;;19.27;80.73;100393.04;1683897;83;21097;-67
2022/07/23 01:26:49;;;;;;;2.90;1.10;;;;;;;19.30;80.15;100399.29;1667680;85;21522;-67
2022/07/23 01:29:16;;;;;;;1.60;1.50;;;;;;;19.28;79.78;100403.31;1671998;85;20987;-66
2022/07/23 01:31:44;;;;;;;0.95;0.95;;;;;;;19.22;79.84;100407.80;1670941;84;21613;-68
2022/07/23 01:34:10;;;;;;;2.85;1.10;;;;;;;19.17;79.79;100413.11;1683975;84;20959;-68
2022/07/23 01:36:39;;;;;;;1.72;1.62;;;;;;;19.15;79.88;100412.00;1694170;83;21015;-67
2022/07/23 01:39:07;;;;;;;1.60;1.35;;;;;;;19.14;80.22;100408.22;1685297;83;20979;-67
2022/07/23 01:41:35;;;;;;;1.62;1.52;;;;;;;19.15;80.13;100405.25;1688151;83;20990;-66
2022/07/23 01:44:02;;;;;;;1.27;1.27;;;;;;;19.17;79.35;100401.77;1671193;83;21070;-67
2022/07/23 01:46:29;;;;;;;1.45;1.37;;;;;;;19.17;79.12;100404.47;1669041;84;20998;-67
2022/07/23 01:48:56;;;;;;;2.85;2.60;;;;;;;19.19;78.92;100405.58;1680929;83;20971;-67
2022/07/23 01:51:24;;;;;;;2.08;1.98;;;;;;;19.19;78.92;100405.07;1687432;83;21541;-68
2022/07/23 01:53:52;;;;;;;1.92;1.92;;;;;;;19.20;78.86;100408.59;1680403;83;21054;-67
2022/07/23 01:56:20;;;;;;;1.70;1.17;;;;;;;19.19;78.89;100413.17;1660132;84;21118;-68
2022/07/23 01:58:50;;;;;;;1.75;1.67;;;;;;;19.20;79.10;100413.45;1659058;85;21531;-68
2022/07/23 02:01:17;;;;;;;3.00;1.47;;;;;;;19.18;79.17;100408.02;1665270;84;21010;-68
2022/07/23 02:03:43;;;;;;;3.47;2.00;;;;;;;19.16;79.28;100408.25;1684264;84;21136;-66
2022/07/23 02:06:10;;;;;;;1.40;1.40;;;;;;;19.14;79.54;100414.43;1665605;84;21042;-66
2022/07/23 02:08:38;;;;;;;1.42;1.42;;;;;;;19.09;80.21;100412.98;1661017;84;21564;-68
2022/07/23 02:11:04;;;;;;;1.80;1.80;;;;;;;19.05;80.33;100418.59;1668978;84;21069;-66
2022/07/23 02:13:32;;;;;;;1.75;1.10;;;;;;;19.03;80.50;100411.26;1673485;84;21044;-67
2022/07/23 02:16:00;;;;;;;2.45;1.42;;;;;;;19.04;80.73;100414.23;1674656;84;21094;-66
2022/07/23 02:18:26;;;;;;;1.75;1.65;;;;;;;19.06;80.73;100416.16;1678376;84;21050;-67
2022/07/23 02:20:52;;;;;;;3.08;1.70;;;;;;;19.04;80.84;100415.07;1670920;85;21069;-66
2022/07/23 02:23:18;;;;;;;2.98;1.45;;;;;;;19.02;80.90;100418.55;1670289;84;21450;-69
2022/07/23 02:25:44;;;;;;;;;;;;;;;19.01;81.05;100417.44;1675959;84;21101;-66
2022/07/23 02:28:12;;;;;;;1.45;1.45;;;;;;;19.01;81.41;100418.79;1660986;84;20142;-66
2022/07/23 02:30:41;;;;;;;1.87;1.77;;;;;;;18.95;82.05;100421.08;1660380;84;21040;-68
2022/07/23 02:33:08;;;;;;;2.37;1.52;;;;;;;18.99;82.41;100423.08;1662238;85;21590;-68
2022/07/23 02:35:37;;;;;;;1.77;1.52;;;;;;;19.06;81.72;100416.16;1667390;84;21069;-66
2022/07/23 02:38:04;;;;;;;1.65;1.65;;;;;;;19.06;80.83;100417.51;1666292;86;22054;-67
2022/07/23 02:40:32;;;;;;;1.52;1.42;;;;;;;19.04;80.87;100419.63;1643479;86;21046;-67
2022/07/23 02:43:00;;;;;;;3.10;1.75;;;;;;;19.03;81.09;100424.77;1649371;86;21050;-67
2022/07/23 02:45:28;;;;;;;3.22;1.77;;;;;;;19.01;80.93;100422.84;1626946;86;21177;-66
2022/07/23 02:47:57;;;;;;;1.98;1.70;;;;;;;19.00;81.10;100419.83;1657525;85;21029;-66
2022/07/23 02:50:24;;;;;;;2.65;2.45;;;;;;;18.99;81.14;100420.91;1663393;85;21053;-66
2022/07/23 02:52:51;;;;;;;2.20;2.10;;;;;;;18.99;81.19;100418.21;1638451;85;21085;-67
2022/07/23 02:55:19;;;;;;;1.50;1.50;;;;;;;19.01;81.29;100426.89;1640247;85;21651;-66
2022/07/23 02:57:45;;;;;;;1.72;1.62;;;;;;;19.04;81.14;100422.34;1654636;85;21024;-68
2022/07/23 03:00:12;;;;;;;;;;;;;;;19.07;80.88;100421.86;1644264;85;21534;-67
2022/07/23 03:02:38;;;;;;;;;;;;;;;19.21;81.28;100418.31;1688053;84;20110;-68
2022/07/23 03:05:07;;;;;;;2.02;1.92;;;;;;;19.54;81.69;100417.53;1664499;85;20144;-67
2022/07/23 03:07:34;;;;;;;2.87;1.85;;;;;;;20.07;78.95;100426.73;1694479;84;21574;-66
2022/07/23 03:10:01;;;;;;;1.22;1.20;;;;;;;20.63;76.82;100421.27;1675133;83;21196;-67
2022/07/23 03:12:30;;;;;;;4.70;1.67;;;;;;;21.19;74.76;100423.17;1657311;85;21046;-68
2022/07/23 03:14:56;;;;;;;3.50;1.85;;;;;;;21.69;71.92;100426.08;1676188;85;21138;-66
2022/07/23 03:17:25;;;;;;;2.70;1.57;;;;;;;22.08;69.82;100427.70;1683497;84;21065;-68
2022/07/23 03:19:51;;;;;;;1.37;1.37;;;;;;;22.42;68.36;100431.43;1683222;84;21073;-69
2022/07/23 03:22:19;;;;;;;1.57;1.20;;;;;;;22.78;66.82;100435.08;1685317;84;21046;-67
2022/07/23 03:24:55;;;;;;;0.85;0.72;;;;;;;23.16;64.50;100433.56;1697596;84;20978;-66
2022/07/23 03:27:26;;;;;;;3.45;1.45;;;;;;;23.46;62.91;100432.22;1657188;85;21082;-66
2022/07/23 03:29:56;;;;;;;2.87;1.20;;;;;;;23.63;61.21;100431.13;1662458;85;21319;-69
2022/07/23 03:32:24;;;;;;;4.25;1.02;;;;;;;23.78;61.06;100435.20;1670987;84;21471;-67
2022/07/23 03:34:52;;;;;;;2.20;1.12;;;;;;;24.07;60.39;100437.34;1658366;85;21038;-74
2022/07/23 03:37:19;;;;;;;1.47;1.10;;;;;;;24.35;59.26;100435.90;1689085;84;21098;-76
2022/07/23 03:39:46;;;;;;;2.27;1.22;;;;;;;24.58;58.50;100437.75;1685922;84;21029;-72
2022/07/23 03:42:13;;;;;;;1.45;1.20;;;;;;;24.84;57.90;100443.89;1680961;84;21053;-73
2022/07/23 03:44:40;;;;;;;1.55;1.45;;;;;;;25.13;57.35;100441.27;1682902;84;21667;-74
2022/07/23 03:47:08;;;;;;;2.35;1.07;;;;;;;25.54;55.35;100442.36;1680807;85;21027;-72
2022/07/23 03:49:36;;;;;;;2.70;1.30;;;;;;;25.81;55.00;100439.66;1692087;84;21011;-74
2022/07/23 03:52:03;;;;;;;3.15;2.00;;;;;;;26.12;54.18;100438.80;1688368;84;21125;-79
2022/07/23 03:54:30;;;;;;;4.47;1.55;;;;;;;26.45;52.62;100436.25;1686184;84;21050;-76
2022/07/23 03:56:56;;;;;;;1.62;1.00;;;;;;;26.90;51.59;100440.88;1682204;81;21009;-73
2022/07/23 03:59:23;;;;;;;0.85;0.85;;;;;;;27.17;50.91;100445.67;1686375;84;21574;-75
2022/07/23 04:01:51;;;;;;;2.62;1.10;;;;;;;27.48;49.71;100442.48;1691198;84;21056;-76
2022/07/23 04:04:18;;;;;;;2.95;0.70;;;;;;;27.73;48.58;100452.75;1677650;84;21121;-76
2022/07/23 04:06:45;;;;;;;2.27;1.20;;;;;;;27.74;48.38;100442.03;1673821;84;21006;-77
2022/07/23 04:09:13;;;;;;;1.52;0.65;;;;;;;27.80;47.72;100442.75;1670398;84;21100;-77
2022/07/23 04:11:39;;;;;;;2.05;0.85;;;;;;;27.79;46.52;100441.15;1684518;84;21443;-78
2022/07/23 04:14:07;;;;;;;1.77;0.90;;;;;;;27.70;46.24;100442.38;1681926;84;21462;-76
2022/07/23 04:16:34;;;;;;;0.65;0.65;;;;;;;27.66;46.37;100435.89;1668836;85;21106;-76
2022/07/23 04:19:01;;;;;;;3.02;0.88;;;;;;;27.72;46.24;100440.16;1675943;85;21672;-76
2022/07/23 04:21:30;;;;;;;0.55;0.53;;;;;;;27.80;46.00;100435.34;1662607;85;21067;-77
2022/07/23 04:23:56;;;;;;;3.00;0.68;;;;;;;27.90;45.35;100433.83;1679600;85;21091;-75
2022/07/23 04:26:23;;;;;;;1.30;0.60;;;;;;;28.07;44.63;100435.17;1650077;85;21176;-69
2022/07/23 04:28:54;;;;;;;4.75;0.98;;;;;;;28.23;43.98;100432.94;1664098;85;21173;-70
2022/07/23 04:31:22;;;;;;;1.30;0.70;;;;;;;28.37;43.11;100433.75;1668859;85;21027;-72
2022/07/23 04:33:48;;;;;;;1.00;0.47;;;;;;;28.30;43.00;100436.09;1649802;84;21061;-70
2022/07/23 04:36:15;;;;;;;0.72;0.40;;;;;;;28.32;43.00;100429.73;1681363;84;20939;-71
2022/07/23 04:38:41;;;;;;;1.02;0.50;;;;;;;28.41;42.61;100429.84;1672583;84;21065;-71
2022/07/23 04:41:08;;;;;;;2.65;0.70;;;;;;;28.51;42.15;100426.87;1675713;84;21519;-68
2022/07/23 04:43:35;;;;;;;1.30;0.35;;;;;;;28.66;41.50;100429.88;1670495;84;21030;-76
2022/07/23 04:46:05;;;;;;;6.22;0.50;;;;;;;28.76;40.84;100426.09;1663927;84;22207;-66
2022/07/23 04:48:33;;;;;;;0.40;0.40;;;;;;;28.67;41.18;100430.12;1641253;86;21102;-66
2022/07/23 04:51:01;;;;;;;0.40;0.40;;;;;;;28.60;41.38;100422.33;1646273;86;21133;-67
2022/07/23 04:53:29;;;;;;;0.60;0.30;;;;;;;28.58;40.65;100422.39;1662782;85;21081;-67
2022/07/23 04:55:57;;;;;;;1.62;0.30;;;;;;;28.41;41.24;100425.16;1670588;84;21540;-67
2022/07/23 04:58:24;;;;;;;1.30;0.30;;;;;;;28.09;41.89;100432.38;1674878;84;21021;-66
2022/07/23 05:00:50;;;;;;;1.05;0.40;;;;;;;28.03;41.98;100432.23;1666630;84;21210;-69
2022/07/23 05:03:17;;;;;;;0.80;0.80;;;;;;;27.98;41.50;100438.36;1682662;84;21119;-68
2022/07/23 05:05:45;;;;;;;2.00;0.80;;;;;;;27.80;42.00;100438.64;1671142;85;21098;-67
2022/07/23 05:08:13;;;;;;;2.77;0.70;;;;;;;27.69;42.29;100434.73;1687755;84;21066;-68
2022/07/23 05:10:42;;;;;;;1.10;0.70;;;;;;;27.44;42.63;100439.27;1681690;84;21129;-65
2022/07/23 05:13:08;;;;;;;0.70;0.40;;;;;;;27.21;43.20;100440.98;1642404;86;21534;-68
2022/07/23 05:15:38;;;;;;;1.55;0.50;;;;;;;27.10;43.68;100447.95;1639141;86;21102;-69
2022/07/23 05:18:05;;;;;;;1.12;0.42;;;;;;;27.12;43.45;100438.09;1643749;86;21007;-68
2022/07/23 05:20:31;;;;;;;0.30;0.23;;;;;;;27.13;43.55;100448.74;1636121;86;21033;-68
2022/07/23 05:22:57;;;;;;;1.02;0.40;;;;;;;27.26;43.24;100446.41;1649097;86;21066;-67
2022/07/23 05:25:24;;;;;;;1.25;0.37;;;;;;;27.21;43.22;100445.89;1652175;86;21020;-68
2022/07/23 05:27:50;;;;;;;1.32;0.40;;;;;;;27.08;43.31;100453.48;1659547;85;21599;-68
2022/07/23 05:30:16;;;;;;;3.12;0.30;;;;;;;27.16;43.37;100462.38;1655236;86;21062;-68
2022/07/23 05:32:45;;;;;;;2.72;0.30;;;;;;;27.58;42.72;100452.45;1658638;86;21056;-69
2022/07/23 05:35:13;;;;;;;0.82;0.35;;;;;;;28.03;41.79;100448.66;1659322;86;21087;-67
2022/07/23 05:37:41;;;;;;;1.70;0.30;;;;;;;28.03;41.47;100447.83;1651496;86;21098;-68
2022/07/23 05:40:11;;;;;;;0.50;0.40;;;;;;;27.83;41.86;100453.12;1651068;86;21060;-66
2022/07/23 05:42:39;;;;;;;0.20;0.20;;;;;;;27.56;42.47;100457.41;1625049;86;21038;-67
2022/07/23 05:45:08;;;;;;;3.15;0.40;;;;;;;27.48;42.96;100460.81;1662651;86;21078;-68
2022/07/23 05:47:42;;;;;;;1.45;0.53;;;;;;;27.81;42.25;100459.45;1659629;86;21020;-69
2022/07/23 05:50:12;;;;;;;3.25;0.53;;;;;;;28.28;41.82;100452.83;1658329;85;21050;-68
2022/07/23 05:52:41;;;;;;;0.35;0.35;;;;;;;28.39;40.89;100452.61;1658089;85;21078;-70
2022/07/23 05:55:12;;;;;;;2.35;0.42;;;;;;;28.43;41.18;100455.82;1652571;85;21015;-68
2022/07/23 05:57:41;;;;;;;1.40;0.55;;;;;;;28.63;40.42;100448.31;1659355;86;21109;-68
2022/07/23 06:00:10;;;;;;;2.30;0.50;;;;;;;28.71;40.29;100448.41;1640944;86;21063;-70
2022/07/23 06:02:43;;;;;;;;;;;;;;;28.77;39.73;100446.94;1669150;85;22197;-69
2022/07/23 06:05:10;;;;;;;2.40;0.40;;;;;;;28.75;39.42;100444.49;1661202;84;20112;-68
2022/07/23 06:07:36;;;;;;;0.75;0.30;;;;;;;28.77;39.67;100432.66;1656983;85;21687;-69
2022/07/23 06:10:05;;;;;;;0.57;0.40;;;;;;;28.82;40.61;100441.31;1660980;85;21022;-68
2022/07/23 06:12:32;;;;;;;1.75;0.35;;;;;;;29.12;39.45;100437.05;1657206;85;22397;-69
2022/07/23 06:15:00;;;;;;;1.02;0.25;;;;;;;29.38;39.20;100436.47;1676257;84;21019;-70
2022/07/23 06:17:27;;;;;;;1.30;0.40;;;;;;;29.47;38.72;100445.59;1684583;84;21026;-68
2022/07/23 06:19:54;;;;;;;0.50;0.40;;;;;;;29.23;38.49;100446.70;1662102;85;21057;-68
2022/07/23 06:22:21;;;;;;;1.00;0.20;;;;;;;28.80;39.52;100440.81;1676175;84;21097;-69
2022/07/23 06:24:48;;;;;;;0.50;0.20;;;;;;;28.45;39.98;100442.62;1682143;84;21347;-68
2022/07/23 06:27:15;;;;;;;1.15;0.20;;;;;;;28.26;40.19;100443.30;1662388;84;21035;-67
2022/07/23 06:29:41;;;;;;;0.50;0.30;;;;;;;27.99;41.13;100453.67;1669240;85;21573;-68
2022/07/23 06:32:08;;;;;;;5.97;0.20;;;;;;;27.81;41.34;100443.02;1676644;85;21057;-70
2022/07/23 06:34:34;;;;;;;1.98;0.20;;;;;;;27.72;42.00;100449.17;1668827;85;21702;-69
2022/07/23 06:37:01;;;;;;;0.55;0.20;;;;;;;27.61;42.16;100451.83;1676584;85;21102;-69
2022/07/23 06:39:27;;;;;;;1.05;0.47;;;;;;;27.59;42.08;100447.22;1652865;85;21667;-71
2022/07/23 06:41:53;;;;;;;0.40;0.20;;;;;;;27.66;42.59;100453.69;1672553;85;21561;-71
2022/07/23 06:44:20;;;;;;;1.85;0.30;;;;;;;27.82;42.09;100448.20;1673051;84;21582;-71
2022/07/23 06:46:48;;;;;;;0.95;0.30;;;;;;;27.90;41.36;100442.61;1668967;86;21105;-70
2022/07/23 06:49:15;;;;;;;0.30;0.20;;;;;;;27.85;40.37;100452.25;1642242;86;21042;-71
2022/07/23 06:51:41;;;;;;;2.12;0.20;;;;;;;27.81;40.77;100458.89;1637284;86;21169;-72
2022/07/23 06:54:07;;;;;;;0.30;0.20;;;;;;;27.76;39.83;100446.11;1642431;87;21054;-71
2022/07/23 06:56:34;;;;;;;3.42;0.33;;;;;;;27.62;40.55;100449.36;1626750;84;21528;-70
2022/07/23 06:59:00;;;;;;;0.68;0.30;;;;;;;27.56;40.40;100458.78;1651529;85;21080;-70
2022/07/23 07:01:27;;;;;;;2.50;0.47;;;;;;;27.48;41.09;100458.91;1660303;85;21081;-70
2022/07/23 07:03:53;;;;;;;0.62;0.20;;;;;;;27.51;41.30;100458.86;1676362;85;21085;-70
2022/07/23 07:06:19;;;;;;;0.57;0.20;;;;;;;27.61;40.78;100454.56;1639389;85;21023;-69
2022/07/23 07:08:47;;;;;;;0.95;0.20;;;;;;;27.69;40.26;100464.85;1648163;85;21633;-71
2022/07/23 07:11:13;;;;;;;3.95;0.30;;;;;;;27.61;41.56;100455.94;1663267;84;21022;-70
2022/07/23 07:13:39;;;;;;;1.02;0.10;;;;;;;27.74;39.92;100463.38;1628942;86;21039;-72
2022/07/23 07:16:06;;;;;;;2.15;0.10;;;;;;;27.84;39.71;100462.94;1642141;86;21150;-73
2022/07/23 07:18:32;;;;;;;0.37;0.30;;;;;;;27.98;39.45;100452.06;1641534;86;21050;-71
2022/07/23 07:21:00;;;;;;;3.20;0.20;;;;;;;28.14;38.86;100452.84;1632517;86;21138;-73
2022/07/23 07:23:28;;;;;;;0.80;0.40;;;;;;;28.20;37.89;100449.98;1630944;85;21141;-74
2022/07/23 07:25:54;;;;;;;3.05;0.10;;;;;;;28.07;38.42;100457.90;1635571;87;21086;-71
2022/07/23 07:28:21;;;;;;;0.47;0.30;;;;;;;27.87;38.63;100462.34;1631160;87;21518;-73
2022/07/23 07:30:47;;;;;;;0.20;0.10;;;;;;;27.70;39.22;100458.81;1662265;86;21038;-71
2022/07/23 07:33:13;;;;;;;0.65;0.20;;;;;;;27.53;39.96;100450.59;1658051;85;21069;-72
2022/07/23 07:35:40;;;;;;;0.50;0.25;;;;;;;27.39;40.08;100457.97;1677651;85;21570;-70
2022/07/23 07:38:06;;;;;;;1.07;0.30;;;;;;;27.35;40.15;100448.16;1674931;85;21414;-71
2022/07/23 07:40:32;;;;;;;1.55;0.28;;;;;;;27.28;40.97;100442.25;1673493;84;21051;-72
2022/07/23 07:42:58;;;;;;;2.00;0.30;;;;;;;27.38;40.77;100448.11;1660548;86;21514;-71
2022/07/23 07:45:25;;;;;;;1.10;0.20;;;;;;;27.49;40.18;100449.58;1671940;85;21002;-70
2022/07/23 07:47:52;;;;;;;0.17;0.13;;;;;;;27.50;40.13;100449.01;1644388;86;21565;-70
2022/07/23 07:50:21;;;;;;;2.15;0.30;;;;;;;27.42;40.14;100448.33;1665721;83;21015;-71
2022/07/23 07:52:48;;;;;;;0.45;0.30;;;;;;;27.36;40.53;100441.56;1643313;86;21388;-70
2022/07/23 07:55:16;;;;;;;3.83;0.10;;;;;;;27.35;40.74;100443.23;1676013;83;21537;-71
2022/07/23 07:57:42;;;;;;;1.10;0.30;;;;;;;27.34;40.18;100450.63;1627150;86;21084;-70
2022/07/23 08:00:10;;;;;;;1.55;0.15;;;;;;;27.15;40.02;100456.66;1654616;85;21140;-72
2022/07/23 08:02:51;;;;;;;0.20;0.10;;;;;;;26.98;40.77;100459.34;1623143;86;21042;-71
2022/07/23 08:05:21;;;;;;;0.25;0.20;;;;;;;26.96;40.63;100451.20;1627582;86;21133;-70
2022/07/23 08:07:47;;;;;;;2.25;0.20;;;;;;;26.88;41.38;100449.94;1626260;88;21477;-73
2022/07/23 08:10:14;;;;;;;0.72;0.30;;;;;;;26.89;40.65;100455.65;1626622;88;21055;-70
2022/07/23 08:12:48;;;;;;;2.15;0.20;;;;;;;26.91;40.76;100455.36;1645714;85;21609;-71
2022/07/23 08:15:18;;;;;;;4.67;0.20;;;;;;;26.91;40.92;100450.70;1621526;87;21518;-71
2022/07/23 08:17:46;;;;;;;1.02;0.20;;;;;;;26.94;41.28;100457.52;1640789;86;21722;-72
2022/07/23 08:20:16;;;;;;;0.93;0.20;;;;;;;26.91;41.43;100463.00;1658903;85;21030;-70
2022/07/23 08:22:59;;;;;;;1.67;0.20;;;;;;;26.87;41.55;100459.80;1639124;86;21100;-72
2022/07/23 08:25:36;;;;;;;0.20;0.20;;;;;;;26.87;41.70;100455.13;1631622;85;21073;-71
2022/07/23 08:28:09;;;;;;;2.42;0.20;;;;;;;26.86;41.70;100452.16;1649368;86;20987;-71
2022/07/23 08:30:38;;;;;;;0.57;0.30;;;;;;;26.87;41.71;100451.03;1652850;84;21593;-73
2022/07/23 08:33:12;;;;;;;0.45;0.30;;;;;;;26.88;41.85;100448.57;1638763;85;21042;-70
2022/07/23 08:35:42;;;;;;;1.02;0.17;;;;;;;26.95;42.04;100443.52;1626769;85;21101;-72
2022/07/23 08:38:11;;;;;;;1.20;0.40;;;;;;;26.96;42.34;100443.80;1671480;83;21089;-69
2022/07/23 08:40:44;;;;;;;0.62;0.20;;;;;;;26.99;42.15;100445.11;1684030;83;21002;-73
2022/07/23 08:43:15;;;;;;;2.65;0.40;;;;;;;27.03;41.63;100450.80;1647984;85;21172;-71
2022/07/23 08:45:48;;;;;;;0.68;0.20;;;;;;;26.99;41.73;100433.64;1678884;83;21033;-71
2022/07/23 08:48:21;;;;;;;2.08;0.20;;;;;;;27.03;41.66;100437.97;1687517;83;21038;-69
2022/07/23 08:50:57;;;;;;;2.55;0.50;;;;;;;27.05;41.55;100433.54;1674213;83;21547;-70
2022/07/23 08:53:26;;;;;;;0.50;0.50;;;;;;;27.10;41.50;100436.20;1687114;83;21077;-70
2022/07/23 08:55:57;;;;;;;0.40;0.35;;;;;;;27.13;41.80;100435.06;1681112;83;21065;-70
2022/07/23 08:58:25;;;;;;;6.03;0.60;;;;;;;27.15;41.52;100438.31;1678961;84;21557;-70
2022/07/23 09:00:52;;;;;;;0.75;0.37;;;;;;;27.18;41.51;100434.16;1644161;86;21472;-71
2022/07/23 09:03:24;;;;;;;1.27;0.30;;;;;;;27.23;41.09;100442.86;1630228;85;20985;-70
2022/07/23 09:05:53;;;;;;;0.42;0.20;;;;;;;27.23;41.12;100431.35;1613870;87;21049;-69
2022/07/23 09:08:23;;;;;;;1.32;0.35;;;;;;;27.26;41.57;100422.59;1621521;87;21064;-70
2022/07/23 09:11:00;;;;;;;0.90;0.20;;;;;;;27.35;41.66;100429.01;1614338;87;21048;-71
2022/07/23 09:13:38;;;;;;;;;;;;;;;27.40;41.38;100428.09;1688163;83;21022;-72
2022/07/23 09:16:14;;;;;;;0.88;0.20;;;;;;;27.42;41.63;100436.02;1670581;83;20261;-71
2022/07/23 09:18:44;;;;;;;1.50;0.35;;;;;;;27.42;41.32;100433.28;1673641;85;21053;-70
2022/07/23 09:21:23;;;;;;;1.25;0.20;;;;;;;27.47;41.07;100422.25;1685872;83;21537;-71
2022/07/23 09:24:00;;;;;;;1.95;0.10;;;;;;;27.49;40.60;100424.13;1633718;85;21105;-73
2022/07/23 09:26:47;;;;;;;2.58;0.30;;;;;;;27.38;40.49;100424.28;1635009;85;21074;-71
2022/07/23 09:29:23;;;;;;;0.85;0.10;;;;;;;27.31;40.45;100417.58;1633799;86;21087;-71
2022/07/23 09:32:00;;;;;;;1.80;0.20;;;;;;;27.30;40.74;100412.66;1625202;86;21045;-73
2022/07/23 09:34:35;;;;;;;3.90;0.25;;;;;;;27.36;39.97;100420.23;1664129;84;20998;-72
2022/07/23 09:37:19;;;;;;;0.37;0.20;;;;;;;27.35;39.73;100422.17;1656224;85;21491;-71
2022/07/23 09:39:47;;;;;;;0.42;0.10;;;;;;;27.35;39.85;100420.80;1678659;84;21067;-71
2022/07/23 09:42:23;;;;;;;0.25;0.25;;;;;;;27.36;39.30;100414.20;1674853;84;21038;-72
2022/07/23 09:44:56;;;;;;;0.60;0.15;;;;;;;27.37;39.10;100421.31;1675155;83;21089;-73
2022/07/23 09:47:26;;;;;;;0.40;0.10;;;;;;;27.35;39.38;100407.12;1673076;84;21077;-71
2022/07/23 09:50:09;;;;;;;3.40;0.10;;;;;;;27.32;39.71;100410.44;1661239;85;21132;-72
2022/07/23 09:52:47;;;;;;;4.15;0.30;;;;;;;27.41;39.95;100403.73;1654592;85;21544;-74
2022/07/23 09:55:15;;;;;;;1.35;0.20;;;;;;;27.52;40.23;100409.83;1667439;84;21256;-71
2022/07/23 09:57:46;;;;;;;1.95;0.10;;;;;;;27.61;39.98;100416.80;1675779;85;21267;-69
2022/07/23 10:00:14;;;;;;;3.72;0.20;;;;;;;27.67;39.53;100416.42;1655455;84;21062;-74
2022/07/23 10:02:41;;;;;;;2.05;0.23;;;;;;;27.69;39.32;100414.20;1654341;85;21118;-73
2022/07/23 10:05:27;;;;;;;0.35;0.20;;;;;;;27.67;38.92;100406.01;1656398;84;21071;-72
2022/07/23 10:08:02;;;;;;;0.15;0.10;;;;;;;27.66;38.66;100407.94;1682995;83;21587;-72
2022/07/23 10:10:47;;;;;;;0.62;0.23;;;;;;;27.61;38.39;100412.13;1687911;83;21044;-73
2022/07/23 10:16:02;;;;;;;2.85;0.20;;;;;;;27.55;38.76;100399.09;1654465;84;21561;-74
2022/07/23 10:18:31;;;;;;;1.92;0.20;;;;;;;27.57;39.16;100401.53;1661431;84;21048;-72
2022/07/23 10:21:00;;;;;;;2.02;0.23;;;;;;;27.61;39.01;100406.66;1638656;85;21591;-73
2022/07/23 10:23:43;;;;;;;0.40;0.25;;;;;;;27.62;38.75;100394.61;1665512;85;21124;-70
2022/07/23 10:26:24;;;;;;;1.95;0.35;;;;;;;27.62;38.86;100394.61;1681854;84;21076;-72
2022/07/23 10:29:26;;;;;;;1.47;0.20;;;;;;;27.58;38.80;100395.77;1690535;82;22150;-71
2022/07/23 10:32:18;;;;;;;1.85;0.10;;;;;;;27.57;38.72;100390.58;1676916;85;21112;-73
2022/07/23 10:34:56;;;;;;;0.88;0.10;;;;;;;27.59;38.43;100403.41;1683456;84;21044;-72
2022/07/23 10:37:42;;;;;;;0.75;0.20;;;;;;;27.71;38.02;100392.80;1682855;84;21536;-74
2022/07/23 10:40:22;;;;;;;0.20;0.17;;;;;;;27.81;38.00;100387.69;1680283;85;21089;-72
2022/07/23 10:42:46;;;;;;;0.80;0.20;;;;;;;27.83;38.40;100395.60;1686938;84;21168;-71
2022/07/23 10:45:28;;;;;;;0.25;0.25;;;;;;;27.82;38.57;100384.38;1691053;84;21089;-70
2022/07/23 10:48:20;;;;;;;0.30;0.10;;;;;;;27.79;38.46;100389.11;1689721;84;21054;-70
2022/07/23 10:51:13;;;;;;;1.30;0.47;;;;;;;27.70;38.64;100378.84;1672723;84;21054;-70
2022/07/23 10:53:56;;;;;;;0.30;0.30;;;;;;;27.64;39.15;100376.52;1689574;84;21160;-71
2022/07/23 10:56:58;;;;;;;0.50;0.20;;;;;;;27.66;39.06;100380.56;1668027;84;21033;-72
2022/07/23 10:59:24;;;;;;;0.80;0.23;;;;;;;27.65;39.03;100377.59;1675295;85;21536;-71
2022/07/23 11:01:52;;;;;;;0.37;0.10;;;;;;;27.60;38.62;100394.09;1656828;85;21005;-71
2022/07/23 11:04:18;;;;;;;1.75;0.10;;;;;;;27.60;38.50;100378.23;1640555;86;21078;-70
2022/07/23 11:06:53;;;;;;;0.95;0.10;;;;;;;27.64;37.79;100377.31;1655128;84;22396;-70
2022/07/23 11:09:31;;;;;;;1.95;0.10;;;;;;;27.66;37.50;100373.72;1664413;85;21065;-70
2022/07/23 11:12:31;;;;;;;0.85;0.20;;;;;;;27.67;37.32;100369.05;1647885;86;21031;-69
2022/07/23 11:15:11;;;;;;;1.75;0.10;;;;;;;27.67;37.78;100369.05;1650993;85;21045;-69
2022/07/23 11:17:47;;;;;;;2.72;0.20;;;;;;;27.76;37.89;100370.80;1673266;85;21078;-70
2022/07/23 11:20:23;;;;;;;0.85;0.20;;;;;;;27.86;37.91;100360.74;1658633;85;21103;-71
2022/07/23 11:22:56;;;;;;;0.33;0.17;;;;;;;27.90;37.73;100372.77;1643738;85;21020;-70
2022/07/23 11:25:31;;;;;;;0.10;0.10;;;;;;;27.96;36.88;100375.66;1651620;86;21132;-69
2022/07/23 11:28:15;;;;;;;0.75;0.20;;;;;;;28.01;36.78;100366.51;1588109;88;21340;-70
2022/07/23 11:30:46;;;;;;;1.27;0.10;;;;;;;28.04;36.59;100372.77;1649477;86;21576;-71
2022/07/23 11:33:17;;;;;;;0.93;0.10;;;;;;;28.04;36.47;100370.02;1649072;86;21596;-71
2022/07/23 11:35:49;;;;;;;5.47;0.20;;;;;;;28.03;36.46;100368.38;1614495;87;21121;-71
2022/07/23 11:38:22;;;;;;;0.55;0.20;;;;;;;28.02;36.33;100368.95;1619338;86;21085;-70
2022/07/23 11:40:52;;;;;;;0.30;0.10;;;;;;;28.01;36.43;100368.71;1637339;86;21070;-72